Time;durP1;ratioP1;P1;durP2;ratioP2;P2;SDS_P1;SDS_P2;PMS_P1;PMS_P2;Temp;Humidity;BMP_temperature;BMP_pressure;BME280_temperature;BME280_humidity;BME280_pressure;Samples;Min_cycle;Max_cycle;Signal;HPM_P1;HPM_P2
2022/10/02 00:00:08;;;;;;;0.52;0.10;;;19.20;48.50;21.50;94323.00;;;;10468043;28;45192;-59
2022/10/02 00:05:35;;;;;;;0.43;0.20;;;19.20;48.50;21.50;94339.00;;;;10471205;28;45934;-60
2022/10/02 00:10:59;;;;;;;;;;;19.10;48.60;21.50;94338.00;;;;10472445;28;45175;-59
2022/10/02 00:16:27;;;;;;;0.10;0.10;;;19.10;48.60;21.50;94341.00;;;;10473338;28;45240;-59
2022/10/02 00:22:11;;;;;;;0.20;0.10;;;19.10;48.60;21.50;94339.00;;;;10472611;28;45273;-59
2022/10/02 00:27:55;;;;;;;0.45;0.17;;;19.10;48.60;21.50;94344.00;;;;10472637;28;45200;-60
2022/10/02 00:33:26;;;;;;;0.63;0.20;;;19.10;48.70;21.50;94356.00;;;;10472092;28;45242;-59
2022/10/02 00:38:56;;;;;;;0.10;0.10;;;19.10;48.70;21.50;94366.00;;;;10429291;28;45240;-60
2022/10/02 00:44:39;;;;;;;0.50;0.20;;;19.00;48.70;21.40;94369.00;;;;10444466;28;45185;-60
2022/10/02 00:50:20;;;;;;;0.30;0.20;;;19.10;48.80;21.40;94370.00;;;;10430074;28;45296;-59
2022/10/02 00:55:55;;;;;;;0.30;0.17;;;19.10;48.70;21.40;94380.00;;;;10430096;28;45309;-59
2022/10/02 01:01:22;;;;;;;0.17;0.15;;;19.00;48.70;21.40;94375.00;;;;10425594;28;45682;-59
2022/10/02 01:06:43;;;;;;;0.88;0.20;;;19.00;48.70;21.40;94392.00;;;;10435460;28;45741;-59
2022/10/02 01:12:04;;;;;;;0.63;0.20;;;19.00;48.80;21.40;94386.00;;;;10470818;28;45130;-60
2022/10/02 01:17:29;;;;;;;0.20;0.10;;;19.00;48.80;21.40;94390.00;;;;10471108;28;45359;-59
2022/10/02 01:22:58;;;;;;;0.13;0.10;;;19.00;48.80;21.40;94380.00;;;;10471594;28;45198;-59
2022/10/02 01:28:21;;;;;;;0.30;0.20;;;19.00;48.80;21.40;94377.00;;;;10469863;28;45157;-59
2022/10/02 01:33:47;;;;;;;0.65;0.10;;;19.00;48.80;21.40;94381.00;;;;10470702;28;45249;-59
2022/10/02 01:39:08;;;;;;;0.10;0.10;;;18.90;48.80;21.30;94370.00;;;;10427296;28;45738;-59
2022/10/02 01:44:30;;;;;;;0.35;0.10;;;18.90;48.80;21.30;94370.00;;;;10429061;28;45421;-60
2022/10/02 01:50:07;;;;;;;0.17;0.10;;;19.00;48.90;21.30;94374.00;;;;10428189;28;45167;-60
2022/10/02 01:55:35;;;;;;;;;;;18.90;48.80;21.30;94367.00;;;;10461042;28;45312;-60
2022/10/02 02:01:02;;;;;;;;;;;18.90;48.90;21.30;94370.00;;;;10470902;28;45157;-60
2022/10/02 02:06:30;;;;;;;0.10;0.10;;;18.90;48.90;21.30;94363.00;;;;10469989;28;45184;-60
2022/10/02 02:11:58;;;;;;;0.38;0.10;;;18.90;48.90;21.30;94372.00;;;;10469577;28;45469;-60
2022/10/02 02:17:27;;;;;;;0.30;0.17;;;18.90;49.00;21.30;94377.00;;;;10469108;28;45162;-58
2022/10/02 02:22:51;;;;;;;0.30;0.20;;;18.90;49.00;21.20;94375.00;;;;10474515;28;45808;-60
2022/10/02 02:28:15;;;;;;;0.55;0.20;;;18.90;49.00;21.20;94382.00;;;;10476385;28;45138;-59
2022/10/02 02:33:43;;;;;;;0.32;0.20;;;18.80;49.00;21.20;94390.00;;;;10476277;28;45264;-60
2022/10/02 02:39:09;;;;;;;0.40;0.17;;;18.90;49.00;21.20;94384.00;;;;10475149;28;45210;-59
2022/10/02 02:44:33;;;;;;;0.70;0.10;;;18.90;49.00;21.20;94376.00;;;;10476705;28;45232;-59
2022/10/02 02:50:00;;;;;;;0.30;0.10;;;18.90;49.10;21.20;94380.00;;;;10476115;28;45773;-59
2022/10/02 02:55:26;;;;;;;0.28;0.20;;;18.90;49.10;21.20;94376.00;;;;10475687;28;45799;-60
2022/10/02 03:00:47;;;;;;;0.20;0.20;;;18.80;49.10;21.20;94375.00;;;;10475694;28;45261;-60
2022/10/02 03:06:30;;;;;;;0.32;0.10;;;18.80;49.10;21.20;94364.00;;;;10475405;28;45226;-60
2022/10/02 03:12:02;;;;;;;0.17;0.10;;;18.80;49.10;21.20;94364.00;;;;10475453;28;45206;-59
2022/10/02 03:17:37;;;;;;;0.68;0.20;;;18.80;49.20;21.20;94366.00;;;;10475797;28;45389;-59
2022/10/02 03:23:09;;;;;;;0.10;0.05;;;18.80;49.20;21.10;94365.00;;;;10474967;28;45252;-60
2022/10/02 03:28:35;;;;;;;0.32;0.10;;;18.80;49.20;21.10;94363.00;;;;10474922;28;45769;-60
2022/10/02 03:33:59;;;;;;;0.30;0.20;;;18.80;49.30;21.10;94363.00;;;;10474588;28;45214;-58
2022/10/02 03:39:21;;;;;;;0.30;0.20;;;18.80;49.30;21.10;94355.00;;;;10473207;28;45869;-59
2022/10/02 03:44:43;;;;;;;0.20;0.03;;;18.70;49.30;21.10;94364.00;;;;10474329;28;45132;-58
2022/10/02 03:50:04;;;;;;;0.10;0.10;;;18.80;49.30;21.10;94353.00;;;;10474064;28;45133;-60
2022/10/02 03:55:34;;;;;;;0.22;0.13;;;18.70;49.30;21.10;94362.00;;;;10474185;28;46065;-60
2022/10/02 04:01:00;;;;;;;0.22;0.13;;;18.80;49.30;21.10;94380.00;;;;10473882;28;45143;-59
2022/10/02 04:06:26;;;;;;;0.40;0.20;;;18.70;50.00;21.10;94375.00;;;;10473545;28;45158;-59
2022/10/02 04:11:54;;;;;;;0.20;0.20;;;18.80;49.30;21.10;94367.00;;;;10473602;28;45508;-59
2022/10/02 04:17:21;;;;;;;0.77;0.13;;;18.90;49.10;21.20;94364.00;;;;10473667;28;45431;-60
2022/10/02 04:22:50;;;;;;;0.10;0.10;;;19.00;49.00;21.30;94366.00;;;;10473190;28;45335;-59
2022/10/02 04:28:16;;;;;;;0.15;0.10;;;19.10;48.90;21.30;94362.00;;;;10472072;28;45764;-60
2022/10/02 04:33:36;;;;;;;0.50;0.08;;;19.20;48.80;21.40;94373.00;;;;10472280;28;45269;-60
2022/10/02 04:39:28;;;;;;;0.38;0.10;;;19.20;48.70;21.40;94363.00;;;;10429910;28;45830;-59
2022/10/02 04:45:14;;;;;;;0.25;0.08;;;19.20;48.70;21.40;94374.00;;;;10431440;28;45392;-60
2022/10/02 04:50:46;;;;;;;0.28;0.20;;;19.30;48.70;21.50;94357.00;;;;10464245;28;45340;-60
2022/10/02 04:56:26;;;;;;;0.03;0.03;;;19.30;48.70;21.50;94360.00;;;;10471770;28;45183;-59
2022/10/02 05:02:06;;;;;;;0.10;0.10;;;19.40;48.60;21.50;94357.00;;;;10473877;28;45846;-59
2022/10/02 05:07:51;;;;;;;0.08;0.05;;;19.40;48.60;21.60;94362.00;;;;10472869;28;45268;-60
2022/10/02 05:13:31;;;;;;;0.03;0.00;;;19.40;48.50;21.60;94357.00;;;;10462410;28;45812;-60
2022/10/02 05:19:19;;;;;;;0.10;0.00;;;19.40;48.50;21.60;94348.00;;;;10445422;28;45183;-59
2022/10/02 05:24:50;;;;;;;0.52;0.10;;;19.50;48.60;21.60;94357.00;;;;10461649;28;45282;-60
2022/10/02 05:30:13;;;;;;;0.17;0.00;;;19.50;48.60;21.60;94364.00;;;;10472010;28;46111;-59
2022/10/02 05:35:57;;;;;;;0.45;0.10;;;19.50;48.50;21.70;94364.00;;;;10470254;28;45222;-60
2022/10/02 05:41:25;;;;;;;0.10;0.10;;;19.50;48.50;21.70;94358.00;;;;10470392;28;45312;-60
2022/10/02 05:46:51;;;;;;;0.17;0.13;;;19.60;48.50;21.70;94352.00;;;;10469974;28;45253;-59
2022/10/02 05:52:18;;;;;;;0.10;0.00;;;19.60;48.40;21.70;94340.00;;;;10470309;28;45276;-59
2022/10/02 05:57:42;;;;;;;0.20;0.15;;;19.60;48.40;21.80;94335.00;;;;10469379;28;45703;-59
2022/10/02 06:03:14;;;;;;;0.52;0.10;;;19.60;48.40;21.80;94359.00;;;;10456701;28;45215;-59
2022/10/02 06:08:42;;;;;;;0.17;0.10;;;19.70;48.40;21.80;94347.00;;;;10469670;28;45205;-59
2022/10/02 06:14:11;;;;;;;0.00;0.00;;;19.70;48.40;21.80;94345.00;;;;10463468;28;45131;-59
2022/10/02 06:19:37;;;;;;;0.45;0.08;;;19.70;48.40;21.80;94342.00;;;;10467901;28;45307;-60
2022/10/02 06:25:09;;;;;;;0.25;0.10;;;19.70;48.40;21.80;94342.00;;;;10468969;28;45295;-60
2022/10/02 06:30:35;;;;;;;0.10;0.00;;;19.70;48.40;21.90;94338.00;;;;10468932;28;45216;-59
2022/10/02 06:36:40;;;;;;;0.10;0.00;;;19.70;48.40;21.90;94355.00;;;;10460368;28;45770;-59
2022/10/02 06:42:16;;;;;;;0.55;0.10;;;19.80;48.40;21.90;94350.00;;;;10468268;28;45190;-60
2022/10/02 06:47:58;;;;;;;0.15;0.10;;;19.80;48.40;21.90;94344.00;;;;10467265;28;45218;-59
2022/10/02 06:53:45;;;;;;;0.95;0.00;;;19.80;48.40;21.90;94338.00;;;;10442752;28;45210;-59
2022/10/02 06:59:28;;;;;;;0.10;0.10;;;19.80;48.40;21.90;94328.00;;;;10447123;28;45307;-58
2022/10/02 07:05:14;;;;;;;0.00;0.00;;;19.80;48.40;21.90;94325.00;;;;10440977;28;45911;-60
2022/10/02 07:10:41;;;;;;;0.20;0.10;;;19.80;48.40;21.90;94339.00;;;;10440361;28;45182;-59
2022/10/02 07:16:27;;;;;;;0.25;0.10;;;19.80;48.40;21.90;94341.00;;;;10474902;28;45337;-60
2022/10/02 07:21:57;;;;;;;0.13;0.03;;;19.80;48.40;22.00;94355.00;;;;10475272;28;45230;-60
2022/10/02 07:27:23;;;;;;;0.30;0.10;;;19.80;48.40;22.00;94325.00;;;;10474648;28;45268;-60
2022/10/02 07:32:48;;;;;;;0.10;0.10;;;19.80;48.40;22.00;94322.00;;;;10475554;28;46244;-60
2022/10/02 07:38:42;;;;;;;0.47;0.08;;;19.80;48.40;22.00;94338.00;;;;10459488;28;45514;-60
2022/10/02 07:44:17;;;;;;;0.08;0.00;;;19.80;48.40;22.00;94335.00;;;;10454827;28;45849;-59
2022/10/02 07:49:51;;;;;;;0.55;0.00;;;19.80;48.40;22.00;94344.00;;;;10458040;28;45788;-61
2022/10/02 07:55:19;;;;;;;0.10;0.10;;;19.80;48.40;22.00;94344.00;;;;10464164;28;45250;-60
2022/10/02 08:00:43;;;;;;;0.20;0.10;;;19.90;48.40;22.00;94341.00;;;;10436669;28;45505;-60
2022/10/02 08:06:06;;;;;;;0.32;0.10;;;19.90;48.40;22.00;94329.00;;;;10427616;28;45585;-61
2022/10/02 08:11:32;;;;;;;0.10;0.10;;;19.90;48.40;22.00;94349.00;;;;10462228;28;45327;-61
2022/10/02 08:16:57;;;;;;;0.40;0.10;;;19.90;48.40;22.00;94351.00;;;;10466645;28;45210;-61
2022/10/02 08:22:27;;;;;;;0.10;0.00;;;19.90;48.40;22.10;94337.00;;;;10472071;28;45249;-60
2022/10/02 08:27:56;;;;;;;0.10;0.10;;;19.90;49.10;22.00;94354.00;;;;10472593;28;45209;-60
2022/10/02 08:33:21;;;;;;;0.80;0.10;;;19.90;48.40;22.10;94319.00;;;;10472790;28;45162;-60
2022/10/02 08:38:50;;;;;;;0.13;0.00;;;19.90;48.40;22.10;94329.00;;;;10471519;28;45230;-60
2022/10/02 08:45:19;;;;;;;0.00;0.00;;;19.90;48.40;22.10;94343.00;;;;10472904;28;45857;-60
2022/10/02 08:51:29;;;;;;;0.00;0.00;;;19.90;48.40;22.10;94328.00;;;;10472485;28;45225;-61
2022/10/02 08:57:13;;;;;;;0.28;0.20;;;19.90;48.40;22.10;94327.00;;;;10472208;28;45426;-60
2022/10/02 09:03:27;;;;;;;0.20;0.10;;;19.90;48.40;22.10;94329.00;;;;10472008;28;45192;-60
2022/10/02 09:09:32;;;;;;;0.08;0.08;;;19.90;48.50;22.10;94329.00;;;;10470731;28;45233;-60
2022/10/02 09:15:08;;;;;;;0.95;0.10;;;19.90;48.50;22.10;94324.00;;;;10471171;28;45855;-60
2022/10/02 09:21:10;;;;;;;0.20;0.15;;;19.90;48.50;22.10;94320.00;;;;10471738;28;45417;-60
2022/10/02 09:27:19;;;;;;;0.10;0.10;;;19.90;48.60;22.10;94304.00;;;;10471114;28;45355;-61
2022/10/02 09:33:22;;;;;;;0.73;0.15;;;19.90;48.60;22.10;94319.00;;;;10471173;28;45236;-61
2022/10/02 09:39:50;;;;;;;0.30;0.15;;;19.90;48.60;22.10;94317.00;;;;10463830;28;45197;-62
2022/10/02 09:46:13;;;;;;;0.50;0.20;;;19.90;48.70;22.10;94297.00;;;;10443852;28;45838;-61
2022/10/02 09:52:39;;;;;;;1.23;0.10;;;19.90;48.70;22.10;94314.00;;;;10457762;28;45286;-60
2022/10/02 09:58:48;;;;;;;0.30;0.10;;;19.90;49.40;22.10;94300.00;;;;10423241;28;45248;-60
2022/10/02 10:05:12;;;;;;;0.40;0.10;;;19.90;48.80;22.10;94306.00;;;;10440939;28;45857;-60
2022/10/02 10:11:29;;;;;;;0.43;0.10;;;19.90;48.80;22.10;94303.00;;;;10464034;28;45768;-60
2022/10/02 10:17:32;;;;;;;0.10;0.10;;;19.90;48.90;22.10;94294.00;;;;10442349;28;45687;-61
2022/10/02 10:23:34;;;;;;;0.13;0.00;;;19.90;48.90;22.10;94284.00;;;;10410523;28;45699;-61
2022/10/02 10:29:52;;;;;;;0.17;0.10;;;19.90;49.00;22.10;94285.00;;;;10455242;28;45788;-61
2022/10/02 10:35:52;;;;;;;0.45;0.20;;;19.90;49.00;22.10;94277.00;;;;10467067;28;45196;-61
2022/10/02 10:42:05;;;;;;;0.45;0.10;;;19.90;49.00;22.10;94287.00;;;;10469334;28;45419;-61
2022/10/02 10:48:16;;;;;;;1.38;0.20;;;19.90;49.00;22.10;94285.00;;;;10475875;28;45158;-61
2022/10/02 10:54:24;;;;;;;0.45;0.10;;;19.90;49.00;22.10;94283.00;;;;10469428;28;45307;-61
2022/10/02 11:00:18;;;;;;;0.52;0.17;;;19.90;49.10;22.10;94272.00;;;;10447810;28;45301;-61
2022/10/02 11:06:36;;;;;;;0.30;0.10;;;20.00;49.10;22.10;94262.00;;;;10432951;28;45841;-61
2022/10/02 11:12:41;;;;;;;0.22;0.10;;;19.90;49.20;22.10;94265.00;;;;10461088;28;45723;-61
2022/10/02 11:18:29;;;;;;;1.30;0.10;;;19.90;49.20;22.10;94265.00;;;;10446731;28;45758;-61
2022/10/02 11:24:18;;;;;;;1.65;0.30;;;19.90;49.30;22.10;94251.00;;;;10433640;28;45336;-61
2022/10/02 11:30:20;;;;;;;0.20;0.15;;;20.00;49.60;22.20;94254.00;;;;10432769;28;45220;-61
2022/10/02 11:36:09;;;;;;;0.75;0.10;;;20.00;49.70;22.10;94253.00;;;;10457338;28;45249;-61
2022/10/02 11:41:50;;;;;;;0.43;0.00;;;20.00;49.90;22.10;94259.00;;;;10473632;28;45345;-61
2022/10/02 11:47:36;;;;;;;0.50;0.10;;;20.00;50.00;22.10;94252.00;;;;10475113;28;45757;-61
2022/10/02 11:53:16;;;;;;;0.40;0.10;;;20.00;50.10;22.10;94262.00;;;;10464720;28;45213;-61
2022/10/02 11:58:52;;;;;;;0.38;0.00;;;20.00;50.20;22.20;94271.00;;;;10473716;28;45430;-61
2022/10/02 12:04:29;;;;;;;0.47;0.00;;;20.00;50.20;22.10;94266.00;;;;10473842;28;45312;-61
2022/10/02 12:10:13;;;;;;;0.50;0.20;;;20.00;50.30;22.20;94262.00;;;;10472373;28;45254;-61
2022/10/02 12:15:46;;;;;;;1.27;0.10;;;20.00;50.40;22.10;94263.00;;;;10473978;28;45242;-61
2022/10/02 12:27:25;;;;;;;0.20;0.00;;;19.90;50.50;22.10;94245.00;;;;10472616;28;45238;-61
2022/10/02 12:33:08;;;;;;;0.30;0.10;;;19.90;50.70;22.10;94246.00;;;;10473552;28;45229;-61
2022/10/02 12:38:51;;;;;;;0.08;0.00;;;19.90;50.70;22.10;94235.00;;;;10444535;28;45460;-61
2022/10/02 12:44:43;;;;;;;0.03;0.03;;;19.90;50.80;22.10;94230.00;;;;10464703;28;45902;-61
2022/10/02 12:50:22;;;;;;;0.43;0.10;;;20.00;50.90;22.10;94226.00;;;;10471479;28;45204;-61
2022/10/02 12:56:51;;;;;;;0.40;0.20;;;20.00;50.90;22.10;94229.00;;;;10472183;28;45181;-61
2022/10/02 13:02:58;;;;;;;1.13;0.10;;;20.00;51.10;22.20;94208.00;;;;10333856;28;45202;-61
2022/10/02 13:08:58;;;;;;;0.10;0.05;;;20.00;51.10;22.20;94223.00;;;;10460847;28;45550;-61
2022/10/02 13:14:38;;;;;;;0.30;0.10;;;19.90;51.10;22.20;94205.00;;;;10471836;28;45159;-61
2022/10/02 13:20:13;;;;;;;0.17;0.00;;;19.90;51.10;22.10;94196.00;;;;10471930;28;45789;-62
2022/10/02 13:25:59;;;;;;;0.15;0.10;;;20.00;51.60;22.10;94189.00;;;;10471111;28;45804;-62
2022/10/02 13:31:40;;;;;;;0.10;0.10;;;19.90;52.00;22.00;94204.00;;;;10464074;28;45214;-62
2022/10/02 13:37:18;;;;;;;0.20;0.00;;;19.90;53.30;22.00;94198.00;;;;10469393;28;45404;-63
2022/10/02 13:43:20;;;;;;;0.22;0.10;;;19.80;54.50;22.00;94199.00;;;;10436933;28;45834;-62
2022/10/02 13:48:58;;;;;;;0.03;0.00;;;19.80;54.40;22.00;94203.00;;;;10417934;28;46631;-63
2022/10/02 13:55:08;;;;;;;0.10;0.10;;;19.80;54.50;21.90;94190.00;;;;10442372;28;44977;-62
2022/10/02 14:01:10;;;;;;;0.10;0.03;;;19.70;54.80;22.00;94179.00;;;;10464190;28;45927;-62
2022/10/02 14:06:37;;;;;;;0.25;0.10;;;19.70;54.60;22.00;94190.00;;;;10467125;28;45359;-62
2022/10/02 14:12:20;;;;;;;0.25;0.10;;;19.80;54.60;22.00;94188.00;;;;10469985;28;45245;-62
2022/10/02 14:18:05;;;;;;;0.32;0.10;;;19.80;54.90;22.00;94191.00;;;;10436860;28;45359;-62
2022/10/02 14:23:46;;;;;;;0.10;0.10;;;19.80;54.80;22.00;94180.00;;;;10425414;28;45247;-62
2022/10/02 14:29:34;;;;;;;0.25;0.10;;;19.80;54.80;22.00;94178.00;;;;10457245;28;45183;-62
2022/10/02 14:35:26;;;;;;;0.90;0.08;;;19.70;55.30;21.90;94189.00;;;;10462575;28;45325;-62
2022/10/02 14:40:53;;;;;;;0.30;0.08;;;19.70;55.40;21.90;94203.00;;;;10438973;28;45869;-62
2022/10/02 14:46:53;;;;;;;1.30;0.08;;;19.70;55.40;21.90;94182.00;;;;10442196;28;45776;-62
2022/10/02 14:52:42;;;;;;;0.08;0.08;;;19.70;55.40;21.90;94189.00;;;;10450077;28;45510;-62
2022/10/02 14:58:27;;;;;;;0.35;0.10;;;19.70;55.70;21.90;94171.00;;;;10426620;28;46107;-61
2022/10/02 15:04:25;;;;;;;0.15;0.10;;;19.80;55.20;21.90;94205.00;;;;10453669;28;45815;-61
2022/10/02 15:09:57;;;;;;;;;;;19.70;55.40;21.90;94211.00;;;;10446363;28;45186;-61
2022/10/02 15:15:24;;;;;;;1.38;0.10;;;19.70;55.20;21.90;94208.00;;;;10425962;28;45273;-61
2022/10/02 15:20:59;;;;;;;0.93;0.10;;;19.70;55.40;21.90;94229.00;;;;10425588;28;45428;-61
2022/10/02 15:26:39;;;;;;;0.00;0.00;;;19.70;55.30;21.90;94238.00;;;;10445286;28;45931;-61
2022/10/02 15:32:45;;;;;;;0.80;0.10;;;19.70;55.40;21.90;94227.00;;;;10474549;28;45562;-62
2022/10/02 15:38:40;;;;;;;0.30;0.10;;;19.70;55.30;21.80;94245.00;;;;10449703;28;45403;-62
2022/10/02 15:44:24;;;;;;;2.05;0.00;;;19.70;55.40;21.90;94240.00;;;;10462711;28;45166;-61
2022/10/02 15:50:05;;;;;;;0.15;0.10;;;19.70;55.30;21.90;94252.00;;;;10470317;28;45241;-61
2022/10/02 15:55:37;;;;;;;0.22;0.00;;;19.70;55.50;21.90;94264.00;;;;10470799;28;45119;-61
2022/10/02 16:01:25;;;;;;;0.20;0.10;;;19.70;55.00;22.00;94262.00;;;;10470700;28;45271;-60
2022/10/02 16:07:29;;;;;;;0.50;0.10;;;19.80;54.70;22.00;94264.00;;;;10440225;28;45943;-61
2022/10/02 16:13:28;;;;;;;1.25;0.13;;;19.80;54.50;22.00;94255.00;;;;10431822;28;45170;-60
2022/10/02 16:19:07;;;;;;;0.43;0.10;;;19.80;54.20;22.00;94264.00;;;;10431422;28;45529;-60
2022/10/02 16:24:51;;;;;;;0.65;0.10;;;19.80;54.00;22.00;94270.00;;;;10460723;28;45313;-61
2022/10/02 16:30:15;;;;;;;0.00;0.00;;;19.90;53.90;22.00;94276.00;;;;10432041;28;45213;-60
2022/10/02 16:36:30;;;;;;;0.20;0.03;;;19.90;53.80;22.10;94279.00;;;;10457381;28;45285;-61
2022/10/02 16:42:01;;;;;;;0.00;0.00;;;19.90;53.60;22.10;94274.00;;;;10423047;28;45187;-61
2022/10/02 16:47:29;;;;;;;0.10;0.10;;;19.90;53.40;22.10;94266.00;;;;10430516;28;45206;-61
2022/10/02 16:52:58;;;;;;;0.20;0.10;;;19.90;53.30;22.10;94263.00;;;;10455373;28;45195;-61
2022/10/02 16:58:25;;;;;;;0.00;0.00;;;19.90;53.20;22.10;94273.00;;;;10459801;28;45228;-61
2022/10/02 17:04:08;;;;;;;0.10;0.10;;;19.90;53.10;22.10;94276.00;;;;10471666;28;45246;-61
2022/10/02 17:09:40;;;;;;;0.10;0.10;;;19.90;53.00;22.10;94271.00;;;;10470744;28;45438;-61
2022/10/02 17:15:15;;;;;;;0.20;0.10;;;19.90;52.90;22.10;94281.00;;;;10472157;28;45762;-61
2022/10/02 17:20:44;;;;;;;0.17;0.00;;;20.00;52.80;22.10;94300.00;;;;10472422;28;45244;-61
2022/10/02 17:26:13;;;;;;;0.05;0.03;;;19.90;53.40;22.10;94294.00;;;;10471015;28;45702;-61
2022/10/02 17:31:46;;;;;;;0.00;0.00;;;20.00;52.70;22.10;94292.00;;;;10470988;28;45320;-61
2022/10/02 17:38:10;;;;;;;0.10;0.10;;;20.00;52.60;22.10;94296.00;;;;10470475;28;45313;-61
2022/10/02 17:43:42;;;;;;;0.00;0.00;;;20.00;52.50;22.10;94288.00;;;;10421958;28;45713;-61
2022/10/02 17:49:12;;;;;;;0.30;0.10;;;20.00;52.50;22.10;94317.00;;;;10470515;28;45244;-61
2022/10/02 18:00:40;;;;;;;0.40;0.10;;;20.00;52.30;22.10;94327.00;;;;10460631;28;45540;-61
2022/10/02 18:06:17;;;;;;;0.35;0.10;;;20.00;52.20;22.10;94359.00;;;;10465288;28;45317;-61
2022/10/02 18:12:11;;;;;;;0.10;0.10;;;20.00;52.20;22.20;94369.00;;;;10469538;28;45254;-61
2022/10/02 18:17:53;;;;;;;0.30;0.10;;;20.00;52.20;22.10;94370.00;;;;10469140;28;45204;-61
2022/10/02 18:23:36;;;;;;;0.40;0.10;;;20.00;52.10;22.20;94388.00;;;;10469585;28;45574;-61
2022/10/02 18:29:14;;;;;;;0.50;0.08;;;20.00;52.10;22.20;94399.00;;;;10456138;28;45877;-61
2022/10/02 18:35:02;;;;;;;0.40;0.15;;;20.00;52.00;22.20;94396.00;;;;10469023;28;45784;-62
2022/10/02 18:40:26;;;;;;;;;;;20.00;51.90;22.20;94395.00;;;;10469361;28;45348;-61
2022/10/02 18:45:59;;;;;;;0.08;0.00;;;20.00;51.90;22.20;94381.00;;;;10468824;28;45646;-61
2022/10/02 18:51:51;;;;;;;0.10;0.10;;;20.00;51.80;22.20;94389.00;;;;10467917;28;45230;-61
2022/10/02 18:57:30;;;;;;;0.55;0.20;;;20.00;51.80;22.20;94391.00;;;;10460515;28;45718;-61
2022/10/02 19:03:17;;;;;;;0.77;0.10;;;20.00;51.80;22.20;94412.00;;;;10470034;28;45124;-61
2022/10/02 19:09:19;;;;;;;0.38;0.17;;;20.00;51.80;22.20;94400.00;;;;10473227;28;45219;-61
2022/10/02 19:14:44;;;;;;;0.50;0.22;;;20.00;51.70;22.20;94396.00;;;;10466527;28;45204;-61
2022/10/02 19:20:35;;;;;;;0.38;0.20;;;20.00;51.70;22.20;94403.00;;;;10453189;28;45796;-61
2022/10/02 19:26:04;;;;;;;0.65;0.20;;;20.00;51.60;22.20;94398.00;;;;10462928;28;45291;-61
2022/10/02 19:31:28;;;;;;;0.13;0.13;;;20.00;51.60;22.20;94401.00;;;;10462634;28;45706;-61
2022/10/02 19:36:53;;;;;;;0.60;0.20;;;20.00;51.60;22.20;94384.00;;;;10474569;28;45435;-61
2022/10/02 19:42:23;;;;;;;0.20;0.20;;;20.00;51.60;22.20;94389.00;;;;10470931;28;45913;-61
2022/10/02 19:47:49;;;;;;;0.40;0.20;;;20.00;51.60;22.20;94418.00;;;;10446066;28;45667;-61
2022/10/02 19:53:23;;;;;;;0.30;0.13;;;20.00;51.50;22.20;94410.00;;;;10446304;28;45174;-61
2022/10/02 19:58:49;;;;;;;2.25;0.30;;;20.00;51.50;22.20;94408.00;;;;10431227;28;45235;-60
2022/10/02 20:04:18;;;;;;;0.30;0.30;;;20.00;51.40;22.20;94425.00;;;;10432462;28;45761;-60
2022/10/02 20:09:45;;;;;;;0.30;0.20;;;20.00;51.40;22.20;94412.00;;;;10461254;28;46100;-60
2022/10/02 20:15:12;;;;;;;0.68;0.30;;;20.00;51.40;22.20;94410.00;;;;10472097;28;45193;-60
2022/10/02 20:20:35;;;;;;;0.10;0.10;;;20.00;51.40;22.10;94409.00;;;;10432522;28;45249;-60
2022/10/02 20:26:02;;;;;;;0.28;0.13;;;20.00;51.40;22.10;94417.00;;;;10461174;28;45307;-60
2022/10/02 20:31:37;;;;;;;0.30;0.20;;;19.90;51.40;22.10;94444.00;;;;10463258;28;45795;-60
2022/10/02 20:37:04;;;;;;;0.40;0.20;;;19.90;51.50;22.10;94453.00;;;;10472920;28;45226;-60
2022/10/02 20:42:31;;;;;;;0.20;0.20;;;19.90;51.50;22.10;94456.00;;;;10472696;28;45766;-60
2022/10/02 20:48:28;;;;;;;;;;;19.80;51.50;22.10;94455.00;;;;10472541;28;45865;-61
2022/10/02 20:54:24;;;;;;;0.10;0.10;;;19.80;51.50;22.00;94475.00;;;;10463483;28;45147;-60
2022/10/02 21:00:13;;;;;;;0.43;0.30;;;19.80;51.50;22.00;94473.00;;;;10472160;28;45232;-61
2022/10/02 21:06:18;;;;;;;0.73;0.28;;;19.70;51.50;22.00;94475.00;;;;10471283;28;45264;-61
2022/10/02 21:12:16;;;;;;;0.15;0.10;;;19.70;51.70;22.00;94483.00;;;;10469771;28;45266;-61
2022/10/02 21:18:19;;;;;;;0.20;0.20;;;19.70;51.70;21.90;94473.00;;;;10471203;28;45244;-61
2022/10/02 21:24:21;;;;;;;0.30;0.10;;;19.60;51.60;21.90;94479.00;;;;10453456;28;45312;-61
2022/10/02 21:30:02;;;;;;;0.20;0.20;;;19.60;51.70;21.90;94478.00;;;;10463526;28;45227;-61
2022/10/02 21:35:38;;;;;;;0.40;0.30;;;19.50;51.80;21.80;94495.00;;;;10470758;28;45177;-61
2022/10/02 21:41:59;;;;;;;0.20;0.10;;;19.50;51.70;21.80;94482.00;;;;10470298;28;45792;-61
2022/10/02 21:48:03;;;;;;;0.17;0.17;;;19.50;51.80;21.80;94487.00;;;;10422676;28;45109;-60
2022/10/02 21:54:12;;;;;;;0.25;0.20;;;19.50;51.90;21.70;94485.00;;;;10470688;28;45761;-61
2022/10/02 22:00:06;;;;;;;0.45;0.10;;;19.40;51.90;21.70;94487.00;;;;10469329;28;45948;-61
2022/10/02 22:06:21;;;;;;;0.57;0.30;;;19.40;51.90;21.70;94493.00;;;;10468836;28;45306;-60
2022/10/02 22:11:57;;;;;;;0.52;0.20;;;19.40;51.90;21.70;94490.00;;;;10451286;28;45898;-61
2022/10/02 22:17:27;;;;;;;0.10;0.10;;;19.40;51.90;21.60;94478.00;;;;10470587;28;45510;-61
2022/10/02 22:23:14;;;;;;;0.45;0.30;;;19.30;51.90;21.60;94514.00;;;;10469258;28;45180;-60
2022/10/02 22:28:42;;;;;;;0.40;0.10;;;19.30;52.00;21.60;94520.00;;;;10467634;28;45245;-61
2022/10/02 22:34:25;;;;;;;0.32;0.17;;;19.30;51.90;21.60;94509.00;;;;10469666;28;45603;-61
2022/10/02 22:39:53;;;;;;;0.20;0.20;;;19.30;52.00;21.60;94527.00;;;;10472638;28;45225;-60
2022/10/02 22:45:23;;;;;;;0.38;0.10;;;19.20;52.00;21.60;94517.00;;;;10474575;28;45739;-61
2022/10/02 22:50:51;;;;;;;0.20;0.10;;;19.30;52.00;21.50;94519.00;;;;10434716;28;45364;-61
2022/10/02 22:56:25;;;;;;;0.10;0.10;;;19.20;52.00;21.50;94501.00;;;;10434291;28;45880;-61
2022/10/02 23:01:52;;;;;;;0.10;0.10;;;19.20;52.00;21.50;94510.00;;;;10464870;28;45276;-60
2022/10/02 23:07:16;;;;;;;0.50;0.10;;;19.20;52.00;21.50;94516.00;;;;10474677;28;45161;-61
2022/10/02 23:12:43;;;;;;;0.30;0.17;;;19.20;52.00;21.50;94511.00;;;;10475490;28;45267;-61
2022/10/02 23:18:15;;;;;;;0.20;0.17;;;19.20;52.00;21.50;94517.00;;;;10475519;28;45541;-61
2022/10/02 23:23:49;;;;;;;0.30;0.15;;;19.20;52.10;21.50;94527.00;;;;10474925;28;45263;-60
2022/10/02 23:29:25;;;;;;;0.70;0.20;;;19.10;52.00;21.40;94529.00;;;;10463002;28;45306;-61
2022/10/02 23:34:58;;;;;;;0.45;0.10;;;19.20;52.10;21.40;94520.00;;;;10470772;28;45217;-61
2022/10/02 23:41:35;;;;;;;0.10;0.10;;;19.10;52.00;21.40;94521.00;;;;10468130;28;45248;-61
2022/10/02 23:46:15;;;;;;;0.30;0.20;;;19.10;52.00;21.40;94522.00;;;;10455721;28;45274;-61
2022/10/02 23:51:46;;;;;;;0.20;0.13;;;19.10;52.00;21.40;94530.00;;;;10432741;28;45310;-60
2022/10/02 23:57:43;;;;;;;0.20;0.17;;;19.10;52.00;21.40;94546.00;;;;10432289;28;45244;-61
